createdAt,value
2019-02-23T00:00:55.934Z,57.23
2019-02-23T00:03:25.234Z,56.28
2019-02-23T00:06:08.248Z,54.93
2019-02-23T00:08:37.477Z,58.08
2019-02-23T00:11:06.695Z,54.38
2019-02-23T00:13:36.994Z,49.48
2019-02-23T00:16:06.197Z,54.33
2019-02-23T00:18:35.589Z,52.60
2019-02-23T00:21:04.807Z,51.85
2019-02-23T00:23:34.038Z,50.90
2019-02-23T00:26:04.318Z,49.93
2019-02-23T00:28:33.540Z,53.87
2019-02-23T00:31:02.743Z,50.48
2019-02-23T00:33:31.966Z,48.13
2019-02-23T00:36:01.179Z,53.15
2019-02-23T00:38:30.398Z,52.48
2019-02-23T00:40:59.590Z,52.13
2019-02-23T00:43:28.794Z,46.37
2019-02-23T00:45:58.030Z,51.13
2019-02-23T00:48:27.233Z,46.42
2019-02-23T00:50:56.492Z,50.92
2019-02-23T00:53:25.766Z,52.62
2019-02-23T00:55:55.105Z,41.58
2019-02-23T00:58:24.330Z,44.90
2019-02-23T01:00:53.548Z,50.33
2019-02-23T01:03:22.847Z,46.53
2019-02-23T01:05:52.266Z,45.45
2019-02-23T01:08:21.483Z,45.78
2019-02-23T01:10:58.038Z,47.45
2019-02-23T01:13:21.616Z,44.45
2019-02-23T01:15:50.834Z,44.67
2019-02-23T01:18:20.071Z,41.75
2019-02-23T01:20:49.326Z,42.62
2019-02-23T01:23:18.536Z,40.75
2019-02-23T01:25:47.761Z,45.95
2019-02-23T01:28:17.029Z,44.05
2019-02-23T01:30:46.646Z,45.90
2019-02-23T01:33:18.609Z,42.90
2019-02-23T01:35:48.344Z,38.20
2019-02-23T01:38:17.596Z,45.85
2019-02-23T01:40:46.823Z,42.17
2019-02-23T01:43:16.101Z,44.25
2019-02-23T01:45:45.319Z,40.23
2019-02-23T01:48:14.563Z,37.85
2019-02-23T01:50:43.786Z,38.80
2019-02-23T01:53:12.998Z,41.30
2019-02-23T01:55:42.225Z,40.20
2019-02-23T01:58:11.522Z,40.75
2019-02-23T02:00:40.811Z,38.45
2019-02-23T02:03:10.038Z,39.08
2019-02-23T02:05:39.247Z,39.35
2019-02-23T02:08:08.476Z,44.08
2019-02-23T02:10:37.690Z,43.15
2019-02-23T02:13:07.007Z,36.75
2019-02-23T02:15:36.375Z,35.48
2019-02-23T02:18:05.676Z,38.63
2019-02-23T02:20:35.591Z,35.43
2019-02-23T02:23:04.810Z,37.98
2019-02-23T02:25:34.023Z,37.70
2019-02-23T02:28:03.250Z,39.03
2019-02-23T02:30:32.452Z,32.95
2019-02-23T02:33:01.670Z,44.53
2019-02-23T02:35:30.883Z,39.35
2019-02-23T02:38:00.111Z,34.95
2019-02-23T02:40:29.329Z,38.10
2019-02-23T02:42:58.549Z,36.33
2019-02-23T02:45:27.757Z,34.65
2019-02-23T02:47:56.977Z,36.83
2019-02-23T02:50:26.196Z,35.68
2019-02-23T02:52:55.411Z,31.82
2019-02-23T02:55:38.646Z,37.35
2019-02-23T02:58:07.863Z,31.77
2019-02-23T03:00:37.082Z,35.90
2019-02-23T03:03:06.303Z,31.15
2019-02-23T03:05:35.519Z,35.20
2019-02-23T03:08:04.763Z,31.55
2019-02-23T03:10:33.977Z,34.48
2019-02-23T03:13:03.194Z,36.15
2019-02-23T03:15:32.485Z,34.90
2019-02-23T03:18:01.760Z,37.78
2019-02-23T03:20:36.627Z,30.65
2019-02-23T03:23:02.677Z,35.40
2019-02-23T03:25:31.975Z,32.17
2019-02-23T03:28:01.245Z,30.02
2019-02-23T03:30:30.463Z,28.65
2019-02-23T03:32:59.821Z,32.93
2019-02-23T03:35:29.116Z,29.40
2019-02-23T03:37:58.336Z,29.67
2019-02-23T03:40:27.635Z,35.65
2019-02-23T03:42:56.856Z,29.30
2019-02-23T03:45:26.126Z,34.40
2019-02-23T03:47:55.347Z,32.03
2019-02-23T03:50:24.548Z,33.42
2019-02-23T03:52:53.769Z,29.55
2019-02-23T03:55:23.051Z,28.83
2019-02-23T03:57:52.257Z,30.88
2019-02-23T04:00:21.483Z,31.10
2019-02-23T04:02:50.693Z,31.10
2019-02-23T04:05:19.931Z,31.57
2019-02-23T04:07:49.154Z,32.78
2019-02-23T04:10:18.367Z,30.08
2019-02-23T04:12:47.662Z,27.95
2019-02-23T04:15:16.894Z,35.28
2019-02-23T04:17:46.174Z,26.15
2019-02-23T04:20:15.400Z,28.70
2019-02-23T04:22:44.652Z,30.10
2019-02-23T04:25:17.735Z,29.05
2019-02-23T04:27:46.942Z,25.97
2019-02-23T04:30:16.120Z,26.10
2019-02-23T04:32:45.346Z,29.37
2019-02-23T04:35:14.623Z,27.07
2019-02-23T04:37:43.802Z,25.83
2019-02-23T04:40:13.030Z,26.05
2019-02-23T04:42:42.242Z,29.42
2019-02-23T04:45:21.259Z,26.83
2019-02-23T04:47:55.427Z,28.17
2019-02-23T04:50:25.778Z,23.40
2019-02-23T04:52:55.052Z,26.50
2019-02-23T04:55:24.299Z,27.22
2019-02-23T04:57:53.587Z,24.20
2019-02-23T05:00:22.795Z,25.40
2019-02-23T05:02:52.091Z,20.95
2019-02-23T05:05:21.310Z,23.75
2019-02-23T05:07:50.586Z,24.72
2019-02-23T05:10:19.784Z,21.23
2019-02-23T05:12:48.994Z,22.75
2019-02-23T05:15:18.224Z,22.17
2019-02-23T05:17:47.498Z,23.70
2019-02-23T05:20:16.711Z,23.50
2019-02-23T05:22:45.915Z,25.40
2019-02-23T05:25:15.142Z,22.87
2019-02-23T05:27:44.355Z,25.83
2019-02-23T05:30:13.583Z,21.50
2019-02-23T05:32:42.806Z,21.00
2019-02-23T05:35:13.035Z,19.10
2019-02-23T05:37:42.323Z,23.07
2019-02-23T05:40:12.484Z,22.77
2019-02-23T05:42:41.694Z,23.70
2019-02-23T05:45:11.388Z,23.02
2019-02-23T05:47:40.602Z,22.15
2019-02-23T05:50:10.090Z,21.87
2019-02-23T05:52:39.318Z,20.83
2019-02-23T05:55:08.597Z,20.30
2019-02-23T05:57:37.786Z,19.23
2019-02-23T06:00:12.635Z,24.13
2019-02-23T06:02:45.160Z,18.03
2019-02-23T06:05:14.916Z,21.67
2019-02-23T06:07:44.167Z,18.12
2019-02-23T06:10:13.345Z,18.67
2019-02-23T06:12:42.531Z,28.93
2019-02-23T06:15:12.485Z,21.00
2019-02-23T06:17:42.749Z,23.40
2019-02-23T06:20:11.940Z,19.40
2019-02-23T06:22:42.318Z,17.10
2019-02-23T06:25:11.890Z,17.67
2019-02-23T06:27:41.094Z,18.55
2019-02-23T06:30:12.450Z,20.32
2019-02-23T06:32:41.635Z,16.93
2019-02-23T06:35:10.939Z,20.60
2019-02-23T06:37:40.264Z,18.50
2019-02-23T06:40:10.788Z,19.53
2019-02-23T06:42:40.013Z,22.53
2019-02-23T06:45:13.002Z,17.20
2019-02-23T06:47:42.218Z,17.98
2019-02-23T06:50:11.396Z,22.67
2019-02-23T06:52:40.630Z,18.73
2019-02-23T06:55:09.807Z,20.82
2019-02-23T06:57:39.032Z,18.63
2019-02-23T07:00:11.518Z,20.97
2019-02-23T07:02:40.784Z,20.15
2019-02-23T07:05:09.991Z,19.15
2019-02-23T07:07:39.245Z,18.48
2019-02-23T07:10:11.516Z,20.83
2019-02-23T07:12:40.718Z,20.57
2019-02-23T07:15:10.541Z,17.60
2019-02-23T07:17:39.742Z,21.63
2019-02-23T07:20:10.185Z,20.52
2019-02-23T07:22:39.416Z,20.08
2019-02-23T07:25:09.659Z,19.98
2019-02-23T07:27:38.913Z,20.40
2019-02-23T07:30:14.586Z,21.77
2019-02-23T07:32:43.942Z,21.33
2019-02-23T07:35:13.145Z,21.40
2019-02-23T07:37:43.631Z,25.48
2019-02-23T07:40:15.012Z,22.17
2019-02-23T07:42:44.240Z,22.35
2019-02-23T07:45:13.518Z,21.30
2019-02-23T07:47:42.733Z,22.27
2019-02-23T07:50:13.999Z,19.70
2019-02-23T07:52:43.266Z,20.60
2019-02-23T07:55:12.571Z,19.02
2019-02-23T07:57:42.071Z,22.17
2019-02-23T08:00:13.092Z,24.18
2019-02-23T08:02:42.305Z,22.05
2019-02-23T08:05:11.529Z,20.80
2019-02-23T08:07:40.763Z,20.20
2019-02-23T08:10:11.223Z,20.52
2019-02-23T08:12:40.618Z,18.48
2019-02-23T08:15:11.191Z,18.62
2019-02-23T08:17:40.447Z,17.40
2019-02-23T08:20:12.007Z,24.98
2019-02-23T08:22:41.224Z,17.00
2019-02-23T08:25:13.607Z,16.70
2019-02-23T08:27:43.114Z,23.18
2019-02-23T08:30:16.267Z,19.48
2019-02-23T08:32:45.505Z,19.70
2019-02-23T08:35:14.734Z,17.95
2019-02-23T08:37:44.028Z,18.87
2019-02-23T08:40:17.363Z,17.57
2019-02-23T08:42:46.591Z,23.52
2019-02-23T08:45:15.825Z,16.40
2019-02-23T08:47:45.203Z,18.95
2019-02-23T08:50:15.495Z,19.35
2019-02-23T08:52:48.976Z,21.07
2019-02-23T08:55:15.713Z,17.48
2019-02-23T08:57:45.008Z,17.05
2019-02-23T09:00:16.460Z,19.87
2019-02-23T09:02:45.947Z,16.12
2019-02-23T09:05:15.862Z,17.05
2019-02-23T09:07:45.109Z,15.40
2019-02-23T09:10:16.088Z,16.42
2019-02-23T09:12:45.399Z,17.57
2019-02-23T09:15:14.737Z,16.82
2019-02-23T09:17:43.953Z,17.25
2019-02-23T09:20:13.186Z,17.42
2019-02-23T09:22:42.383Z,15.20
2019-02-23T09:25:11.643Z,18.85
2019-02-23T09:27:41.042Z,14.80
2019-02-23T09:30:11.999Z,16.25
2019-02-23T09:32:41.198Z,17.32
2019-02-23T09:35:10.443Z,16.05
2019-02-23T09:37:39.716Z,15.10
2019-02-23T09:40:13.967Z,15.63
2019-02-23T09:42:43.291Z,19.02
2019-02-23T09:45:13.497Z,14.93
2019-02-23T09:47:42.717Z,13.13
2019-02-23T09:50:11.940Z,14.55
2019-02-23T09:52:41.279Z,14.73
2019-02-23T09:55:10.489Z,14.03
2019-02-23T09:57:39.689Z,19.80
2019-02-23T10:00:11.353Z,15.83
2019-02-23T10:02:40.680Z,15.45
2019-02-23T10:05:10.137Z,12.93
2019-02-23T10:07:39.401Z,16.15
2019-02-23T10:10:10.253Z,13.32
2019-02-23T10:12:39.461Z,14.50
2019-02-23T10:15:11.195Z,13.62
2019-02-23T10:17:40.487Z,11.00
2019-02-23T10:20:13.987Z,15.32
2019-02-23T10:22:43.326Z,14.25
2019-02-23T10:25:12.588Z,17.15
2019-02-23T10:27:41.864Z,18.10
2019-02-23T10:30:15.547Z,19.52
2019-02-23T10:32:44.752Z,13.35
2019-02-23T10:35:14.220Z,11.22
2019-02-23T10:37:43.440Z,12.95
2019-02-23T10:40:13.003Z,11.73
2019-02-23T10:42:43.287Z,13.75
2019-02-23T10:45:13.253Z,12.58
2019-02-23T10:47:42.520Z,14.33
2019-02-23T10:50:13.369Z,12.95
2019-02-23T10:52:42.593Z,15.55
2019-02-23T10:55:13.123Z,16.73
2019-02-23T10:57:42.330Z,10.05
2019-02-23T11:00:22.878Z,13.62
2019-02-23T11:02:52.236Z,15.45
2019-02-23T11:05:21.511Z,13.15
2019-02-23T11:07:50.753Z,12.80
2019-02-23T11:10:20.217Z,13.58
2019-02-23T11:12:49.615Z,13.58
2019-02-23T11:15:20.460Z,12.25
2019-02-23T11:17:49.759Z,12.03
2019-02-23T11:20:19.427Z,14.50
2019-02-23T11:22:48.634Z,13.18
2019-02-23T11:25:17.833Z,12.33
2019-02-23T11:27:47.033Z,12.75
2019-02-23T11:30:16.583Z,16.37
2019-02-23T11:32:45.788Z,8.10
2019-02-23T11:35:17.461Z,11.60
2019-02-23T11:37:47.198Z,11.08
2019-02-23T11:40:16.774Z,10.88
2019-02-23T11:42:45.991Z,12.40
2019-02-23T11:45:15.194Z,10.98
2019-02-23T11:47:44.406Z,12.70
2019-02-23T11:50:13.876Z,13.80
2019-02-23T11:52:43.105Z,14.45
2019-02-23T11:55:12.373Z,10.18
2019-02-23T11:57:41.743Z,12.05
2019-02-23T12:00:12.693Z,9.80
2019-02-23T12:02:52.168Z,12.47
2019-02-23T12:05:26.983Z,9.25
2019-02-23T12:07:56.191Z,12.50
2019-02-23T12:10:25.463Z,14.50
2019-02-23T12:12:54.674Z,14.70
2019-02-23T12:15:23.884Z,12.55
2019-02-23T12:17:53.105Z,12.68
2019-02-23T12:20:22.442Z,12.98
2019-02-23T12:22:51.661Z,13.55
2019-02-23T12:25:20.875Z,15.55
2019-02-23T12:27:50.107Z,12.95
2019-02-23T12:30:20.598Z,11.03
2019-02-23T12:32:49.805Z,13.80
2019-02-23T12:35:19.172Z,16.65
2019-02-23T12:37:48.433Z,16.32
2019-02-23T12:40:17.712Z,14.00
2019-02-23T12:42:46.974Z,10.85
2019-02-23T12:45:16.930Z,14.05
2019-02-23T12:47:46.127Z,14.10
2019-02-23T12:50:15.454Z,14.18
2019-02-23T12:52:44.688Z,13.45
2019-02-23T12:55:14.071Z,17.35
2019-02-23T12:57:43.286Z,12.33
2019-02-23T13:00:15.146Z,11.15
2019-02-23T13:02:44.358Z,12.05
2019-02-23T13:05:13.558Z,12.23
2019-02-23T13:07:42.766Z,12.15
2019-02-23T13:10:13.029Z,14.30
2019-02-23T13:13:02.922Z,12.05
2019-02-23T13:15:44.246Z,16.10
2019-02-23T13:18:31.757Z,14.00
2019-02-23T13:21:13.259Z,12.35
2019-02-23T13:24:03.511Z,12.15
2019-02-23T13:26:41.814Z,13.20
2019-02-23T13:29:19.919Z,14.50
2019-02-23T13:32:10.774Z,14.43
2019-02-23T13:35:14.674Z,8.90
2019-02-23T13:41:01.302Z,13.00
2019-02-23T13:43:36.686Z,13.28
2019-02-23T13:46:15.173Z,11.97
2019-02-23T13:48:50.382Z,11.80
2019-02-23T13:51:32.143Z,16.95
2019-02-23T13:54:16.036Z,17.27
2019-02-23T13:56:54.406Z,12.68
2019-02-23T13:59:43.321Z,13.03
2019-02-23T14:02:30.458Z,10.58
2019-02-23T14:05:20.342Z,11.22
2019-02-23T14:08:07.918Z,11.83
2019-02-23T14:11:09.046Z,12.13
2019-02-23T14:16:41.298Z,12.53
2019-02-23T14:19:20.764Z,11.90
2019-02-23T14:22:14.614Z,14.93
2019-02-23T14:25:03.454Z,13.55
2019-02-23T14:28:00.082Z,12.47
2019-02-23T14:31:04.262Z,12.15
2019-02-23T14:33:45.635Z,10.15
2019-02-23T14:36:30.190Z,7.97
2019-02-23T14:39:26.767Z,10.48
2019-02-23T14:41:59.470Z,11.48
2019-02-23T14:44:59.515Z,8.50
2019-02-23T14:47:37.979Z,14.58
2019-02-23T14:50:29.782Z,12.55
2019-02-23T14:53:22.730Z,9.80
2019-02-23T14:56:17.985Z,8.45
2019-02-23T14:58:59.539Z,11.60
2019-02-23T15:04:44.294Z,10.30
2019-02-23T15:07:40.416Z,11.68
2019-02-23T15:10:18.796Z,14.87
2019-02-23T15:13:15.214Z,10.82
2019-02-23T15:16:20.666Z,13.30
2019-02-23T15:19:05.447Z,14.07
2019-02-23T15:21:43.665Z,14.75
2019-02-23T15:24:53.881Z,13.15
2019-02-23T15:27:38.153Z,12.20
2019-02-23T15:30:23.544Z,14.28
2019-02-23T15:33:10.126Z,11.53
2019-02-23T15:35:54.418Z,14.40
2019-02-23T15:41:39.407Z,11.33
2019-02-23T15:44:29.577Z,11.63
2019-02-23T15:47:18.776Z,11.95
2019-02-23T15:49:48.029Z,12.33
2019-02-23T15:52:17.344Z,14.90
2019-02-23T15:54:46.614Z,35.55
2019-02-23T15:57:15.841Z,57.85
2019-02-23T15:59:45.110Z,54.88
2019-02-23T16:02:14.326Z,29.15
2019-02-23T16:05:03.049Z,29.23
2019-02-23T16:07:33.232Z,18.45
2019-02-23T16:10:02.508Z,18.07
2019-02-23T16:12:31.875Z,19.00
2019-02-23T16:15:01.123Z,57.70
2019-02-23T16:17:30.614Z,61.28
2019-02-23T16:19:59.908Z,39.65
2019-02-23T16:22:29.291Z,32.38
2019-02-23T16:24:58.519Z,56.00
2019-02-23T16:27:27.814Z,41.95
2019-02-23T16:29:57.027Z,35.63
2019-02-23T16:32:26.251Z,25.65
2019-02-23T16:34:56.719Z,33.55
2019-02-23T16:37:25.940Z,26.87
2019-02-23T16:39:55.159Z,26.42
2019-02-23T16:42:24.371Z,21.27
2019-02-23T16:44:53.605Z,20.40
2019-02-23T16:47:22.896Z,14.53
2019-02-23T16:49:52.119Z,17.90
2019-02-23T16:52:21.324Z,21.87
2019-02-23T16:54:50.743Z,14.00
2019-02-23T16:57:20.163Z,15.20
2019-02-23T16:59:49.376Z,14.00
2019-02-23T17:02:18.573Z,21.50
2019-02-23T17:04:53.533Z,16.17
2019-02-23T17:07:19.940Z,16.50
2019-02-23T17:09:49.147Z,13.32
2019-02-23T17:12:18.351Z,13.95
2019-02-23T17:14:47.571Z,15.15
2019-02-23T17:17:16.797Z,12.55
2019-02-23T17:19:46.012Z,14.73
2019-02-23T17:22:15.239Z,13.38
2019-02-23T17:24:44.519Z,13.65
2019-02-23T17:27:13.711Z,11.63
2019-02-23T17:29:42.928Z,12.82
2019-02-23T17:32:12.151Z,11.57
2019-02-23T17:34:41.432Z,15.55
2019-02-23T17:37:10.715Z,12.28
2019-02-23T17:39:39.968Z,14.55
2019-02-23T17:42:09.191Z,11.33
2019-02-23T17:44:38.492Z,15.18
2019-02-23T17:47:07.774Z,10.98
2019-02-23T17:49:37.048Z,15.25
2019-02-23T17:52:06.327Z,16.32
2019-02-23T17:54:35.607Z,15.10
2019-02-23T17:57:04.826Z,16.80
2019-02-23T17:59:34.229Z,15.93
2019-02-23T18:02:03.747Z,16.75
2019-02-23T18:04:32.972Z,15.23
2019-02-23T18:07:02.195Z,14.23
2019-02-23T18:09:31.597Z,22.58
2019-02-23T18:12:00.898Z,21.65
2019-02-23T18:14:30.138Z,16.97
2019-02-23T18:16:59.459Z,19.48
2019-02-23T18:19:28.738Z,15.40
2019-02-23T18:21:58.215Z,21.57
2019-02-23T18:24:27.710Z,14.87
2019-02-23T18:26:57.072Z,19.12
2019-02-23T18:29:26.314Z,17.92
2019-02-23T18:31:55.527Z,18.25
2019-02-23T18:34:24.893Z,22.48
2019-02-23T18:36:54.826Z,19.42
2019-02-23T18:39:24.063Z,17.92
2019-02-23T18:41:53.338Z,19.40
2019-02-23T18:44:23.898Z,19.57
2019-02-23T18:46:53.278Z,16.95
2019-02-23T18:49:22.495Z,24.60
2019-02-23T18:51:51.720Z,15.03
2019-02-23T18:54:20.999Z,15.58
2019-02-23T18:56:50.397Z,18.42
2019-02-23T18:59:19.626Z,18.65
2019-02-23T19:01:48.835Z,20.10
2019-02-23T19:04:18.037Z,22.65
2019-02-23T19:06:47.255Z,22.02
2019-02-23T19:09:17.558Z,18.10
2019-02-23T19:11:46.781Z,19.17
2019-02-23T19:14:16.098Z,21.93
2019-02-23T19:16:45.319Z,18.00
2019-02-23T19:19:14.550Z,18.27
2019-02-23T19:21:43.959Z,26.33
2019-02-23T19:24:13.422Z,27.45
2019-02-23T19:26:42.644Z,17.65
2019-02-23T19:29:11.878Z,20.90
2019-02-23T19:31:41.083Z,21.62
2019-02-23T19:34:10.480Z,17.82
2019-02-23T19:36:40.745Z,18.23
2019-02-23T19:39:09.972Z,19.45
2019-02-23T19:41:39.914Z,18.30
2019-02-23T19:44:09.335Z,21.23
2019-02-23T19:46:42.250Z,22.77
2019-02-23T19:49:12.726Z,23.25
2019-02-23T19:51:43.099Z,18.98
2019-02-23T19:54:13.736Z,21.87
2019-02-23T19:56:46.751Z,25.60
2019-02-23T19:59:14.222Z,21.20
2019-02-23T20:01:43.495Z,19.95
2019-02-23T20:04:12.783Z,23.05
2019-02-23T20:06:41.994Z,20.35
2019-02-23T20:09:11.215Z,29.10
2019-02-23T20:11:42.254Z,20.45
2019-02-23T20:14:25.487Z,20.27
2019-02-23T20:16:54.702Z,25.62
2019-02-23T20:19:24.030Z,25.77
2019-02-23T20:21:53.318Z,24.70
2019-02-23T20:24:22.555Z,22.90
2019-02-23T20:26:55.559Z,20.23
2019-02-23T20:29:22.851Z,22.93
2019-02-23T20:31:52.086Z,25.72
2019-02-23T20:34:21.457Z,20.70
2019-02-23T20:36:50.850Z,29.02
2019-02-23T20:39:20.152Z,33.35
2019-02-23T20:41:49.635Z,23.50
2019-02-23T20:44:18.839Z,24.85
2019-02-23T20:46:48.055Z,27.65
2019-02-23T20:49:17.338Z,23.67
2019-02-23T20:51:46.634Z,28.15
2019-02-23T20:54:15.927Z,25.37
2019-02-23T20:56:46.766Z,20.60
2019-02-23T20:59:15.987Z,23.75
2019-02-23T21:01:45.266Z,23.65
2019-02-23T21:04:14.629Z,25.37
2019-02-23T21:06:43.874Z,25.25
2019-02-23T21:09:13.377Z,22.98
2019-02-23T21:11:42.776Z,25.75
2019-02-23T21:14:12.006Z,26.42
2019-02-23T21:16:42.023Z,21.25
2019-02-23T21:19:11.338Z,22.58
2019-02-23T21:21:40.614Z,25.10
2019-02-23T21:24:09.936Z,23.80
2019-02-23T21:26:39.174Z,23.12
2019-02-23T21:29:08.402Z,28.67
2019-02-23T21:31:37.818Z,25.97
2019-02-23T21:34:07.102Z,25.40
2019-02-23T21:36:36.341Z,24.45
2019-02-23T21:39:05.587Z,24.92
2019-02-23T21:41:35.885Z,25.68
2019-02-23T21:44:05.442Z,24.98
2019-02-23T21:46:35.745Z,32.00
2019-02-23T21:49:05.034Z,27.22
2019-02-23T21:51:37.369Z,25.25
2019-02-23T21:54:10.073Z,22.93
2019-02-23T21:56:37.642Z,27.13
2019-02-23T21:59:06.935Z,27.52
2019-02-23T22:01:36.290Z,24.40
2019-02-23T22:04:05.579Z,25.27
2019-02-23T22:06:34.932Z,26.70
2019-02-23T22:09:05.049Z,29.00
2019-02-23T22:11:35.884Z,27.20
2019-02-23T22:14:05.161Z,27.85
2019-02-23T22:16:34.455Z,26.95
2019-02-23T22:19:03.843Z,29.15
2019-02-23T22:21:33.070Z,24.85
2019-02-23T22:24:02.304Z,24.37
2019-02-23T22:26:31.515Z,24.00
2019-02-23T22:29:00.820Z,23.60
2019-02-23T22:31:30.022Z,23.47
2019-02-23T22:33:59.303Z,26.82
2019-02-23T22:36:28.523Z,24.60
2019-02-23T22:38:58.718Z,22.70
2019-02-23T22:41:29.011Z,22.82
2019-02-23T22:43:58.212Z,22.37
2019-02-23T22:46:27.438Z,21.93
2019-02-23T22:48:56.643Z,22.62
2019-02-23T22:51:25.934Z,22.90
2019-02-23T22:53:55.155Z,25.85
2019-02-23T22:56:24.460Z,26.48
2019-02-23T22:58:53.688Z,28.52
2019-02-23T23:01:22.979Z,23.85
2019-02-23T23:03:52.851Z,21.60
2019-02-23T23:06:22.073Z,23.02
2019-02-23T23:08:51.289Z,20.10
2019-02-23T23:11:20.510Z,21.52
2019-02-23T23:13:49.875Z,23.95
2019-02-23T23:16:20.707Z,23.10
2019-02-23T23:18:49.938Z,21.60
2019-02-23T23:21:19.165Z,21.45
2019-02-23T23:23:48.391Z,21.95
2019-02-23T23:26:17.592Z,22.30
2019-02-23T23:28:46.822Z,20.55
2019-02-23T23:31:16.023Z,22.02
2019-02-23T23:33:45.336Z,19.35
2019-02-23T23:36:14.605Z,24.35
2019-02-23T23:38:43.816Z,19.15
2019-02-23T23:41:13.920Z,23.15
2019-02-23T23:43:43.119Z,21.90
2019-02-23T23:46:12.419Z,19.82
2019-02-23T23:48:41.679Z,20.72
2019-02-23T23:51:11.039Z,20.43
2019-02-23T23:53:40.365Z,20.45
2019-02-23T23:56:09.711Z,18.98
2019-02-23T23:58:38.987Z,18.67
